Time;durP1;ratioP1;P1;durP2;ratioP2;P2;SDS_P1;SDS_P2;PMS_P1;PMS_P2;Temp;Humidity;BMP_temperature;BMP_pressure;BME280_temperature;BME280_humidity;BME280_pressure;Samples;Min_cycle;Max_cycle;Signal;HPM_P1;HPM_P2
2022/10/21 00:02:08;;;;;;;28.92;12.90;;;;;;;-145.48;100.00;64539.38;6336380;28;20114;-91
2022/10/21 00:05:10;;;;;;;28.83;12.15;;;;;;;-145.48;100.00;64539.38;6327445;28;20039;-91
2022/10/21 00:08:13;;;;;;;24.38;11.98;;;;;;;-145.48;100.00;64539.38;6338026;28;20128;-91
2022/10/21 00:11:15;;;;;;;28.73;12.32;;;;;;;-145.48;100.00;64539.38;6333196;27;20044;-91
2022/10/21 00:14:18;;;;;;;25.10;11.68;;;;;;;-145.48;100.00;64539.38;6334375;28;20742;-91
2022/10/21 00:17:20;;;;;;;21.25;11.55;;;;;;;-145.48;100.00;64539.38;6336834;28;20501;-91
2022/10/21 00:20:22;;;;;;;26.30;11.82;;;;;;;-145.48;100.00;64539.38;6337912;28;20054;-91
2022/10/21 00:23:28;;;;;;;28.73;11.30;;;;;;;-145.48;100.00;64539.38;6338261;28;20755;-91
2022/10/21 00:26:30;;;;;;;24.67;12.70;;;;;;;-145.48;100.00;64539.38;6339072;28;20050;-91
2022/10/21 00:29:39;;;;;;;25.02;12.52;;;;;;;-145.48;100.00;64539.38;6332219;28;20418;-91
2022/10/21 00:32:41;;;;;;;23.52;11.75;;;;;;;-145.48;100.00;64539.38;6327789;28;20069;-91
2022/10/21 00:35:51;;;;;;;21.35;11.85;;;;;;;-145.48;100.00;64539.38;6336495;28;20070;-91
2022/10/21 00:38:55;;;;;;;24.77;12.95;;;;;;;-145.48;100.00;64539.38;6333928;28;20093;-91
2022/10/21 00:41:57;;;;;;;25.30;12.52;;;;;;;-145.48;100.00;64539.38;6334975;28;20054;-91
2022/10/21 00:45:05;;;;;;;21.85;11.63;;;;;;;-145.48;100.00;64539.38;6332967;28;20040;-91
2022/10/21 00:48:18;;;;;;;26.55;12.07;;;;;;;-145.48;100.00;64539.38;6335483;28;20500;-91
2022/10/21 00:51:20;;;;;;;24.88;11.82;;;;;;;-145.48;100.00;64539.38;6337777;28;20436;-91
2022/10/21 00:54:24;;;;;;;26.27;12.05;;;;;;;-145.48;100.00;64539.38;6334485;27;20410;-91
2022/10/21 00:57:27;;;;;;;22.17;12.68;;;;;;;-145.48;100.00;64539.38;6332515;28;20481;-91
2022/10/21 01:00:29;;;;;;;27.48;12.85;;;;;;;-145.48;100.00;64539.38;6324355;28;20583;-91
2022/10/21 01:03:31;;;;;;;24.70;12.18;;;;;;;-145.48;100.00;64539.38;6323927;28;20398;-91
2022/10/21 01:06:35;;;;;;;26.60;13.25;;;;;;;-145.48;100.00;64539.38;6332933;28;20043;-91
2022/10/21 01:09:37;;;;;;;24.23;11.90;;;;;;;-145.48;100.00;64539.38;6333667;28;20036;-91
2022/10/21 01:12:57;;;;;;;24.60;12.95;;;;;;;-145.48;100.00;64539.38;6332441;28;20047;-91
2022/10/21 01:16:27;;;;;;;21.83;12.38;;;;;;;-145.48;100.00;64539.38;6335603;28;20502;-91
2022/10/21 01:19:41;;;;;;;22.23;11.77;;;;;;;-145.48;100.00;64539.38;6333562;28;20047;-91
2022/10/21 01:23:20;;;;;;;23.35;11.60;;;;;;;-145.48;100.00;64539.38;6335141;28;20043;-91
2022/10/21 01:26:52;;;;;;;27.38;12.35;;;;;;;-145.48;100.00;64539.38;6334923;28;20173;-91
2022/10/21 01:30:10;;;;;;;24.58;12.20;;;;;;;-145.48;100.00;64539.38;6335150;28;20063;-91
2022/10/21 01:33:27;;;;;;;20.60;11.65;;;;;;;-145.48;100.00;64539.38;6323084;28;21170;-91
2022/10/21 01:36:46;;;;;;;21.25;11.35;;;;;;;-145.48;100.00;64539.38;6334443;28;20113;-91
2022/10/21 01:40:04;;;;;;;20.02;12.07;;;;;;;-145.48;100.00;64539.38;6327915;28;20055;-92
2022/10/21 01:43:16;;;;;;;22.55;12.52;;;;;;;-145.48;100.00;64539.38;6329345;28;20039;-91
2022/10/21 01:46:24;;;;;;;18.83;11.13;;;;;;;-145.48;100.00;64539.38;6324003;28;20572;-92
2022/10/21 01:49:38;;;;;;;19.77;11.18;;;;;;;-145.48;100.00;64539.38;6335253;28;20040;-91
2022/10/21 01:52:44;;;;;;;22.67;11.23;;;;;;;-145.48;100.00;64539.38;6323255;28;20040;-91
2022/10/21 01:55:48;;;;;;;21.75;11.70;;;;;;;-145.48;100.00;64539.38;6336382;28;20031;-91
2022/10/21 01:58:51;;;;;;;23.23;12.20;;;;;;;-145.48;100.00;64539.38;6332065;28;20078;-91
2022/10/21 02:01:55;;;;;;;19.73;11.43;;;;;;;-145.48;100.00;64539.38;6334034;28;20116;-92
2022/10/21 02:05:03;;;;;;;18.55;10.07;;;;;;;-145.48;100.00;64539.38;6335498;28;20047;-91
2022/10/21 02:08:05;;;;;;;19.83;11.50;;;;;;;-145.48;100.00;64539.38;6334109;28;20479;-91
2022/10/21 02:11:10;;;;;;;17.08;11.23;;;;;;;-145.48;100.00;64539.38;6334030;28;20035;-91
2022/10/21 02:14:17;;;;;;;19.52;11.43;;;;;;;-145.48;100.00;64539.38;6332222;28;20031;-91
2022/10/21 02:17:21;;;;;;;15.40;10.57;;;;;;;-145.48;100.00;64539.38;6320360;28;20495;-91
2022/10/21 02:20:27;;;;;;;21.77;10.73;;;;;;;-145.48;100.00;64539.38;6328698;28;20050;-91
2022/10/21 02:23:39;;;;;;;20.02;10.75;;;;;;;-145.48;100.00;64539.38;6331574;28;20234;-91
2022/10/21 02:26:41;;;;;;;20.58;11.57;;;;;;;-145.48;100.00;64539.38;6320541;28;20386;-91
2022/10/21 02:29:46;;;;;;;19.98;11.35;;;;;;;-145.48;100.00;64539.38;6331284;28;20089;-91
2022/10/21 02:33:05;;;;;;;14.98;9.38;;;;;;;-145.48;100.00;64539.38;6332721;28;20028;-91
2022/10/21 02:36:26;;;;;;;16.98;9.93;;;;;;;-145.48;100.00;64539.38;6333913;28;20521;-91
2022/10/21 02:39:54;;;;;;;14.32;10.32;;;;;;;-145.48;100.00;64539.38;6332385;28;20059;-91
2022/10/21 02:43:01;;;;;;;16.08;9.80;;;;;;;-145.48;100.00;64539.38;6334614;28;20082;-92
2022/10/21 02:46:10;;;;;;;16.35;9.90;;;;;;;-145.48;100.00;64539.38;6331067;28;20043;-91
2022/10/21 02:49:11;;;;;;;15.40;9.63;;;;;;;-145.48;100.00;64539.38;6332202;28;20401;-90
2022/10/21 02:52:13;;;;;;;13.98;9.23;;;;;;;-145.48;100.00;64539.38;6324862;28;20069;-92
2022/10/21 02:55:15;;;;;;;15.57;9.95;;;;;;;-145.48;100.00;64539.38;6328114;28;20398;-91
2022/10/21 02:58:17;;;;;;;14.85;9.38;;;;;;;-145.48;100.00;64539.38;6315261;28;20092;-91
2022/10/21 03:01:19;;;;;;;15.38;9.85;;;;;;;-145.48;100.00;64539.38;6331650;28;20413;-91
2022/10/21 03:04:21;;;;;;;17.05;9.10;;;;;;;-145.48;100.00;64539.38;6333295;28;20071;-92
2022/10/21 03:07:23;;;;;;;13.43;9.30;;;;;;;-145.48;100.00;64539.38;6332130;28;20356;-91
2022/10/21 03:10:25;;;;;;;17.17;9.80;;;;;;;-145.48;100.00;64539.38;6329787;28;20062;-91
2022/10/21 03:13:27;;;;;;;17.98;10.27;;;;;;;-145.48;100.00;64539.38;6331695;28;20047;-92
2022/10/21 03:16:29;;;;;;;13.98;9.38;;;;;;;-145.48;100.00;64539.38;6327766;28;20052;-92
2022/10/21 03:19:31;;;;;;;14.43;9.15;;;;;;;-145.48;100.00;64539.38;6328577;28;20051;-91
2022/10/21 03:22:33;;;;;;;15.73;10.15;;;;;;;-145.48;100.00;64539.38;6330080;28;20529;-92
2022/10/21 03:25:35;;;;;;;15.73;9.88;;;;;;;-145.48;100.00;64539.38;6338865;28;20481;-91
2022/10/21 03:28:38;;;;;;;16.23;10.20;;;;;;;-145.48;100.00;64539.38;6337505;28;20364;-91
2022/10/21 03:31:41;;;;;;;17.42;9.73;;;;;;;-145.48;100.00;64539.38;6331043;28;20044;-92
2022/10/21 03:34:43;;;;;;;14.02;8.80;;;;;;;-145.48;100.00;64539.38;6337381;28;20028;-92
2022/10/21 03:37:45;;;;;;;15.13;9.60;;;;;;;-145.48;100.00;64539.38;6339586;28;20036;-92
2022/10/21 03:40:48;;;;;;;15.50;9.77;;;;;;;-145.48;100.00;64539.38;6336267;28;20432;-92
2022/10/21 03:43:50;;;;;;;13.38;8.80;;;;;;;-145.48;100.00;64539.38;6329052;28;20108;-92
2022/10/21 03:46:52;;;;;;;17.65;10.55;;;;;;;-145.48;100.00;64539.38;6333912;28;20360;-92
2022/10/21 03:49:54;;;;;;;15.43;9.18;;;;;;;-145.48;100.00;64539.38;6326173;27;20031;-92
2022/10/21 03:52:58;;;;;;;15.75;9.38;;;;;;;-145.48;100.00;64539.38;6318785;28;20142;-92
2022/10/21 03:55:59;;;;;;;17.10;9.57;;;;;;;-145.48;100.00;64539.38;6329560;28;20044;-92
2022/10/21 03:59:01;;;;;;;19.00;10.02;;;;;;;-145.48;100.00;64539.38;6335879;28;20432;-93
2022/10/21 04:02:03;;;;;;;14.55;9.18;;;;;;;-145.48;100.00;64539.38;6333738;28;20079;-92
2022/10/21 04:05:06;;;;;;;18.90;9.57;;;;;;;-145.48;100.00;64539.38;6338794;28;20036;-92
2022/10/21 04:08:08;;;;;;;16.10;9.10;;;;;;;-145.48;100.00;64539.38;6338272;28;20039;-92
2022/10/21 04:11:10;;;;;;;16.77;9.75;;;;;;;-145.48;100.00;64539.38;6318455;28;20043;-92
2022/10/21 04:14:12;;;;;;;18.88;9.48;;;;;;;-145.48;100.00;64539.38;6331723;28;20039;-92
2022/10/21 04:17:16;;;;;;;18.40;9.70;;;;;;;-145.48;100.00;64539.38;6320261;28;20164;-92
2022/10/21 04:20:19;;;;;;;15.77;9.30;;;;;;;-145.48;100.00;64539.38;6333673;28;20116;-91
2022/10/21 04:23:21;;;;;;;18.75;9.07;;;;;;;-145.48;100.00;64539.38;6335288;28;20564;-92
2022/10/21 04:26:22;;;;;;;18.10;9.63;;;;;;;-145.48;100.00;64539.38;6335506;28;20390;-91
2022/10/21 04:29:24;;;;;;;18.52;9.77;;;;;;;-145.48;100.00;64539.38;6336036;28;20061;-91
2022/10/21 04:32:27;;;;;;;17.80;9.73;;;;;;;-145.48;100.00;64539.38;6336375;28;20040;-90
2022/10/21 04:35:29;;;;;;;16.05;10.63;;;;;;;-145.48;100.00;64539.38;6311167;28;20088;-91
2022/10/21 04:38:31;;;;;;;21.48;10.32;;;;;;;-145.48;100.00;64539.38;6334019;28;20036;-91
2022/10/21 04:41:33;;;;;;;18.38;9.40;;;;;;;-145.48;100.00;64539.38;6333573;28;20127;-92
2022/10/21 04:44:38;;;;;;;14.07;9.30;;;;;;;-145.48;100.00;64539.38;6335586;28;20089;-91
2022/10/21 04:47:40;;;;;;;17.60;9.50;;;;;;;-145.48;100.00;64539.38;6317061;28;20098;-92
2022/10/21 04:50:42;;;;;;;19.48;9.90;;;;;;;-145.48;100.00;64539.38;6334581;28;20493;-90
2022/10/21 04:53:44;;;;;;;19.40;10.27;;;;;;;-145.48;100.00;64539.38;6337458;28;20446;-91
2022/10/21 04:56:46;;;;;;;16.63;8.95;;;;;;;-145.48;100.00;64539.38;6334475;28;20501;-91
2022/10/21 04:59:48;;;;;;;14.90;9.57;;;;;;;-145.48;100.00;64539.38;6330465;28;20044;-91
2022/10/21 05:02:50;;;;;;;15.82;9.90;;;;;;;-145.48;100.00;64539.38;6334788;28;20755;-91
2022/10/21 05:05:52;;;;;;;16.75;10.20;;;;;;;-145.48;100.00;64539.38;6336186;28;20035;-91
2022/10/21 05:08:54;;;;;;;13.80;9.30;;;;;;;-145.48;100.00;64539.38;6335867;28;20618;-91
2022/10/21 05:11:56;;;;;;;16.05;9.18;;;;;;;-145.48;100.00;64539.38;6335878;28;20543;-91
2022/10/21 05:14:59;;;;;;;17.40;10.38;;;;;;;-145.48;100.00;64539.38;6336368;28;20035;-91
2022/10/21 05:18:01;;;;;;;20.02;9.60;;;;;;;-145.48;100.00;64539.38;6333248;28;20042;-91
2022/10/21 05:21:03;;;;;;;17.33;10.20;;;;;;;-145.48;100.00;64539.38;6336377;28;20428;-91
2022/10/21 05:24:05;;;;;;;14.38;9.35;;;;;;;-145.48;100.00;64539.38;6336425;28;20040;-91
2022/10/21 05:27:07;;;;;;;13.85;9.15;;;;;;;-145.48;100.00;64539.38;6334368;28;20039;-91
2022/10/21 05:30:11;;;;;;;19.85;10.35;;;;;;;-145.48;100.00;64539.38;6336180;28;20040;-91
2022/10/21 05:33:14;;;;;;;15.32;8.82;;;;;;;-145.48;100.00;64539.38;6335271;28;20126;-91
2022/10/21 05:36:15;;;;;;;16.05;9.88;;;;;;;-145.48;100.00;64539.38;6332080;28;20397;-91
2022/10/21 05:39:21;;;;;;;17.50;9.85;;;;;;;-145.48;100.00;64539.38;6332896;28;20528;-91
2022/10/21 05:42:23;;;;;;;19.98;9.48;;;;;;;-145.48;100.00;64539.38;6332369;28;20039;-91
2022/10/21 05:45:25;;;;;;;17.38;9.48;;;;;;;-145.48;100.00;64539.38;6315832;28;20552;-91
2022/10/21 05:48:29;;;;;;;14.90;9.30;;;;;;;-145.48;100.00;64539.38;6333355;28;20044;-91
2022/10/21 05:51:31;;;;;;;17.77;10.63;;;;;;;-145.48;100.00;64539.38;6333456;28;20059;-91
2022/10/21 05:54:32;;;;;;;14.00;9.32;;;;;;;-145.48;100.00;64539.38;6335142;28;20153;-92
2022/10/21 05:57:36;;;;;;;18.08;9.38;;;;;;;-145.48;100.00;64539.38;6333686;28;20850;-92
2022/10/21 06:00:40;;;;;;;24.88;10.18;;;;;;;-145.48;100.00;64539.38;6333640;28;20051;-92
2022/10/21 06:03:42;;;;;;;16.27;9.82;;;;;;;-145.48;100.00;64539.38;6335516;28;20146;-92
2022/10/21 06:06:44;;;;;;;15.07;9.77;;;;;;;-145.48;100.00;64539.38;6334038;28;20050;-92
2022/10/21 06:09:46;;;;;;;16.67;9.70;;;;;;;-145.48;100.00;64539.38;6342069;27;20352;-91
2022/10/21 06:12:48;;;;;;;16.63;9.60;;;;;;;-145.48;100.00;64539.38;6330265;28;20162;-91
2022/10/21 06:15:49;;;;;;;17.48;9.75;;;;;;;-145.48;100.00;64539.38;6331504;28;20039;-92
2022/10/21 06:18:52;;;;;;;15.50;9.60;;;;;;;-145.48;100.00;64539.38;6334742;28;20036;-92
2022/10/21 06:21:54;;;;;;;15.77;10.20;;;;;;;-145.48;100.00;64539.38;6330039;28;20090;-92
2022/10/21 06:24:55;;;;;;;15.27;9.35;;;;;;;-145.48;100.00;64539.38;6334339;28;20082;-92
2022/10/21 06:27:57;;;;;;;14.57;9.63;;;;;;;-145.48;100.00;64539.38;6331609;28;20063;-91
2022/10/21 06:31:00;;;;;;;14.48;8.95;;;;;;;-145.48;100.00;64539.38;6334851;28;20560;-92
2022/10/21 06:34:02;;;;;;;17.50;8.98;;;;;;;-145.48;100.00;64539.38;6345098;27;20043;-92
2022/10/21 06:37:04;;;;;;;12.88;8.48;;;;;;;-145.48;100.00;64539.38;6325004;28;20572;-92
2022/10/21 06:40:06;;;;;;;14.05;8.45;;;;;;;-145.48;100.00;64539.38;6328669;28;20039;-92
2022/10/21 06:43:11;;;;;;;18.75;9.43;;;;;;;-145.48;100.00;64539.38;6334434;28;20035;-92
2022/10/21 06:46:14;;;;;;;14.50;8.50;;;;;;;-145.48;100.00;64539.38;6333595;28;20825;-91
2022/10/21 06:49:16;;;;;;;15.70;9.20;;;;;;;-145.48;100.00;64539.38;6333639;28;20073;-91
2022/10/21 06:52:18;;;;;;;16.50;9.32;;;;;;;-145.48;100.00;64539.38;6333899;28;20043;-91
2022/10/21 06:55:21;;;;;;;16.00;8.63;;;;;;;-145.48;100.00;64539.38;6332432;28;20906;-91
2022/10/21 06:58:23;;;;;;;14.20;9.23;;;;;;;-145.48;100.00;64539.38;6333631;28;20484;-92
2022/10/21 07:01:29;;;;;;;14.38;8.15;;;;;;;-145.48;100.00;64539.38;6331551;28;20054;-91
2022/10/21 07:04:52;;;;;;;17.50;8.93;;;;;;;-145.48;100.00;64539.38;6326823;28;20262;-91
2022/10/21 07:07:53;;;;;;;15.63;8.73;;;;;;;-145.48;100.00;64539.38;6334559;28;20040;-92
2022/10/21 07:10:55;;;;;;;13.93;8.20;;;;;;;-145.48;100.00;64539.38;6323101;28;20474;-92
2022/10/21 07:13:59;;;;;;;12.82;8.38;;;;;;;-145.48;100.00;64539.38;6322771;28;20063;-92
2022/10/21 07:17:01;;;;;;;14.10;7.93;;;;;;;-145.48;100.00;64539.38;6327220;28;20453;-92
2022/10/21 07:20:03;;;;;;;16.30;8.60;;;;;;;-145.48;100.00;64539.38;6322098;28;20040;-92
2022/10/21 07:23:05;;;;;;;12.85;7.53;;;;;;;-145.48;100.00;64539.38;6328682;28;20039;-92
2022/10/21 07:26:08;;;;;;;13.77;7.70;;;;;;;-145.48;100.00;64539.38;6328280;28;20085;-92
2022/10/21 07:29:10;;;;;;;15.77;7.70;;;;;;;-145.48;100.00;64539.38;6329056;28;20040;-93
2022/10/21 07:32:12;;;;;;;14.65;8.68;;;;;;;-145.48;100.00;64539.38;6323122;28;20035;-93
2022/10/21 07:35:14;;;;;;;13.23;8.70;;;;;;;-145.48;100.00;64539.38;6332162;28;20047;-92
2022/10/21 07:38:16;;;;;;;16.30;8.52;;;;;;;-145.48;100.00;64539.38;6329803;28;20039;-92
2022/10/21 07:41:29;;;;;;;14.50;8.57;;;;;;;-145.48;100.00;64539.38;6333261;28;20039;-92
2022/10/21 07:44:31;;;;;;;13.10;8.13;;;;;;;-145.48;100.00;64539.38;6326170;28;20612;-92
2022/10/21 07:47:34;;;;;;;14.57;8.55;;;;;;;-145.48;100.00;64539.38;6333337;28;20059;-93
2022/10/21 07:50:36;;;;;;;17.17;8.40;;;;;;;-145.48;100.00;64539.38;6333842;28;20512;-92
2022/10/21 07:53:39;;;;;;;15.85;8.57;;;;;;;-145.48;100.00;64539.38;6329439;28;20036;-92
2022/10/21 07:56:49;;;;;;;14.32;8.23;;;;;;;-145.48;100.00;64539.38;6330189;28;20035;-92
2022/10/21 07:59:51;;;;;;;14.95;7.68;;;;;;;-145.48;100.00;64539.38;6307302;28;20405;-92
2022/10/21 08:02:54;;;;;;;13.05;7.75;;;;;;;-145.48;100.00;64539.38;6332716;28;20074;-93
2022/10/21 08:05:56;;;;;;;12.88;7.80;;;;;;;-145.48;100.00;64539.38;6329011;28;20031;-93
2022/10/21 08:09:00;;;;;;;13.05;7.18;;;;;;;-145.48;100.00;64539.38;6319262;28;20153;-93
2022/10/21 08:12:02;;;;;;;11.02;7.32;;;;;;;-145.48;100.00;64539.38;6337720;28;20051;-92
2022/10/21 08:15:06;;;;;;;11.80;7.20;;;;;;;-145.48;100.00;64539.38;6316495;28;20054;-92
2022/10/21 08:18:08;;;;;;;11.98;7.07;;;;;;;-145.48;100.00;64539.38;6336949;28;20061;-93
2022/10/21 08:21:11;;;;;;;11.02;7.05;;;;;;;-145.48;100.00;64539.38;6339059;28;20062;-93
2022/10/21 08:24:13;;;;;;;11.32;6.93;;;;;;;-145.48;100.00;64539.38;6340141;28;20540;-94
2022/10/21 08:27:15;;;;;;;10.32;7.20;;;;;;;-145.48;100.00;64539.38;6339142;28;20352;-92
2022/10/21 08:30:17;;;;;;;13.80;7.38;;;;;;;-145.48;100.00;64539.38;6336784;28;20080;-92
2022/10/21 08:33:19;;;;;;;12.43;6.90;;;;;;;-145.48;100.00;64539.38;6338528;28;20039;-92
2022/10/21 08:36:24;;;;;;;13.15;7.10;;;;;;;-145.48;100.00;64539.38;6337451;28;20092;-93
2022/10/21 08:39:26;;;;;;;12.07;6.80;;;;;;;-145.48;100.00;64539.38;6338628;28;20067;-93
2022/10/21 08:42:29;;;;;;;9.85;5.97;;;;;;;-145.48;100.00;64539.38;6329924;28;20081;-93
2022/10/21 08:45:44;;;;;;;10.52;5.78;;;;;;;-145.48;100.00;64539.38;6320059;28;20042;-94
2022/10/21 08:49:14;;;;;;;8.95;5.63;;;;;;;-145.48;100.00;64539.38;6339774;28;20043;-92
2022/10/21 08:52:57;;;;;;;8.93;5.00;;;;;;;-145.48;100.00;64539.38;6331708;28;20043;-94
2022/10/21 08:56:04;;;;;;;9.88;5.45;;;;;;;-145.48;100.00;64539.38;6259897;28;20419;-92
2022/10/21 08:59:20;;;;;;;8.43;5.55;;;;;;;-145.48;100.00;64539.38;6280929;28;20283;-93
2022/10/21 09:02:35;;;;;;;8.93;5.50;;;;;;;-145.48;100.00;64539.38;6252993;28;20144;-93
2022/10/21 09:06:10;;;;;;;9.45;5.20;;;;;;;-145.48;100.00;64539.38;6259301;28;20084;-93
2022/10/21 09:09:27;;;;;;;10.32;5.47;;;;;;;-145.48;100.00;64539.38;6275861;28;20192;-92
2022/10/21 09:12:59;;;;;;;8.10;5.10;;;;;;;-145.48;100.00;64539.38;6279714;28;20118;-92
2022/10/21 09:16:49;;;;;;;7.70;4.70;;;;;;;-145.48;100.00;64539.38;6253662;28;20599;-93
2022/10/21 09:20:06;;;;;;;9.98;5.25;;;;;;;-145.48;100.00;64539.38;6186146;28;21005;-93
2022/10/21 09:23:42;;;;;;;7.70;4.95;;;;;;;-145.48;100.00;64539.38;6203343;28;20050;-93
2022/10/21 09:26:49;;;;;;;7.63;5.13;;;;;;;-145.48;100.00;64539.38;6203943;28;20630;-92
2022/10/21 09:30:04;;;;;;;7.13;4.85;;;;;;;-145.48;100.00;64539.38;6206919;28;20049;-93
2022/10/21 09:33:36;;;;;;;7.70;4.72;;;;;;;-145.48;100.00;64539.38;6225092;28;20052;-93
2022/10/21 09:36:46;;;;;;;8.65;4.90;;;;;;;-145.48;100.00;64539.38;6159347;28;20054;-93
2022/10/21 09:39:56;;;;;;;;;;;;;;;-145.48;100.00;64539.38;6161755;28;20054;-93
2022/10/21 09:43:00;;;;;;;9.38;5.03;;;;;;;-145.48;100.00;64539.38;6160797;28;19932;-92
2022/10/21 09:46:03;;;;;;;11.70;4.85;;;;;;;-145.48;100.00;64539.38;6166122;28;20508;-93
2022/10/21 09:49:15;;;;;;;7.70;4.45;;;;;;;-145.48;100.00;64539.38;6161893;28;20502;-92
2022/10/21 09:52:38;;;;;;;5.70;4.00;;;;;;;-145.48;100.00;64539.38;6160978;28;20058;-93
2022/10/21 09:55:45;;;;;;;7.10;4.82;;;;;;;-145.48;100.00;64539.38;6230525;28;20053;-92
2022/10/21 09:58:51;;;;;;;7.03;4.10;;;;;;;-145.48;100.00;64539.38;6259121;28;20045;-93
2022/10/21 10:01:54;;;;;;;6.15;4.22;;;;;;;-145.48;100.00;64539.38;6258410;28;20415;-92
2022/10/21 10:04:57;;;;;;;7.50;4.28;;;;;;;-145.48;100.00;64539.38;6258940;28;20056;-92
2022/10/21 10:07:59;;;;;;;6.43;4.22;;;;;;;-145.48;100.00;64539.38;6238940;28;20068;-92
2022/10/21 10:11:21;;;;;;;7.75;3.97;;;;;;;-145.48;100.00;64539.38;6258302;28;20262;-92
2022/10/21 10:14:44;;;;;;;7.47;3.95;;;;;;;-145.48;100.00;64539.38;6330010;28;20035;-92
2022/10/21 10:17:46;;;;;;;9.02;4.13;;;;;;;-145.48;100.00;64539.38;6318668;28;20055;-92
2022/10/21 10:21:20;;;;;;;5.75;4.30;;;;;;;-145.48;100.00;64539.38;6336980;28;20046;-92
2022/10/21 10:24:23;;;;;;;7.18;4.13;;;;;;;-145.48;100.00;64539.38;6307945;28;20052;-92
2022/10/21 10:27:25;;;;;;;8.43;4.20;;;;;;;-145.48;100.00;64539.38;6306996;28;20164;-91
2022/10/21 10:30:48;;;;;;;8.55;4.00;;;;;;;-145.48;100.00;64539.38;6277291;28;20048;-92
2022/10/21 10:33:58;;;;;;;8.40;4.28;;;;;;;-145.48;100.00;64539.38;6273274;28;20420;-92
2022/10/21 10:37:17;;;;;;;6.25;4.43;;;;;;;-145.48;100.00;64539.38;6305530;28;20406;-92
2022/10/21 10:40:38;;;;;;;8.35;4.50;;;;;;;-145.48;100.00;64539.38;6302057;28;20140;-92
2022/10/21 10:43:49;;;;;;;6.47;4.20;;;;;;;-145.48;100.00;64539.38;6290765;28;20044;-93
2022/10/21 10:46:54;;;;;;;8.52;5.00;;;;;;;-145.48;100.00;64539.38;6289739;28;20044;-91
2022/10/21 10:49:56;;;;;;;10.68;4.20;;;;;;;-145.48;100.00;64539.38;6308086;28;20046;-92
2022/10/21 10:53:22;;;;;;;6.10;3.97;;;;;;;-145.48;100.00;64539.38;6307422;28;20056;-92
2022/10/21 10:56:28;;;;;;;7.78;4.78;;;;;;;-145.48;100.00;64539.38;6307634;28;20173;-92
2022/10/21 10:59:55;;;;;;;8.55;4.78;;;;;;;-145.48;100.00;64539.38;6309308;28;20381;-92
2022/10/21 11:03:09;;;;;;;5.25;4.47;;;;;;;-145.48;100.00;64539.38;6333491;28;20371;-92
2022/10/21 11:06:17;;;;;;;8.88;4.88;;;;;;;-145.48;100.00;64539.38;6333816;28;20035;-92
2022/10/21 11:09:19;;;;;;;10.80;4.90;;;;;;;-145.48;100.00;64539.38;6332879;28;20044;-92
2022/10/21 11:12:26;;;;;;;11.38;5.18;;;;;;;-145.48;100.00;64539.38;6330835;28;20040;-92
2022/10/21 11:16:00;;;;;;;8.85;4.60;;;;;;;-145.48;100.00;64539.38;6335213;28;20040;-92
2022/10/21 11:19:32;;;;;;;8.45;5.32;;;;;;;-145.48;100.00;64539.38;6330691;28;20101;-93
2022/10/21 11:22:55;;;;;;;9.30;5.05;;;;;;;-145.48;100.00;64539.38;6325392;28;20050;-92
2022/10/21 11:26:05;;;;;;;7.90;4.68;;;;;;;-145.48;100.00;64539.38;6332473;28;20035;-92
2022/10/21 11:29:38;;;;;;;7.97;5.20;;;;;;;-145.48;100.00;64539.38;6330662;28;20136;-92
2022/10/21 11:32:50;;;;;;;9.02;4.80;;;;;;;-145.48;100.00;64539.38;6335361;28;20135;-92
2022/10/21 11:36:31;;;;;;;8.20;4.47;;;;;;;-145.48;100.00;64539.38;6336372;28;20048;-92
2022/10/21 11:39:47;;;;;;;9.80;4.72;;;;;;;-145.48;100.00;64539.38;6307024;28;20047;-92
2022/10/21 11:42:51;;;;;;;9.23;5.63;;;;;;;-145.48;100.00;64539.38;6334372;28;20047;-92
2022/10/21 11:46:12;;;;;;;8.15;4.20;;;;;;;-145.48;100.00;64539.38;6331831;28;20111;-92
2022/10/21 11:49:38;;;;;;;9.30;5.13;;;;;;;-145.48;100.00;64539.38;6340048;28;20058;-92
2022/10/21 11:53:22;;;;;;;7.03;4.75;;;;;;;-145.48;100.00;64539.38;6345490;27;20399;-92
2022/10/21 11:56:39;;;;;;;6.47;4.40;;;;;;;-145.48;100.00;64539.38;6340027;28;20047;-92
2022/10/21 12:00:07;;;;;;;9.25;4.70;;;;;;;-145.48;100.00;64539.38;6333982;28;20035;-92
2022/10/21 12:03:48;;;;;;;6.47;4.65;;;;;;;-145.48;100.00;64539.38;6337816;28;20485;-92
2022/10/21 12:07:13;;;;;;;7.95;4.80;;;;;;;-145.48;100.00;64539.38;6335703;28;20039;-92
2022/10/21 12:10:34;;;;;;;7.53;4.63;;;;;;;-145.48;100.00;64539.38;6334944;27;20100;-92
2022/10/21 12:13:50;;;;;;;10.95;4.50;;;;;;;-145.48;100.00;64539.38;6332524;28;20043;-92
2022/10/21 12:16:56;;;;;;;7.78;4.63;;;;;;;-145.48;100.00;64539.38;6334096;28;20040;-91
2022/10/21 12:20:02;;;;;;;6.68;4.35;;;;;;;-145.48;100.00;64539.38;6330948;28;20046;-92
2022/10/21 12:23:05;;;;;;;6.45;4.78;;;;;;;-145.48;100.00;64539.38;6340275;28;20035;-92
2022/10/21 12:26:15;;;;;;;6.88;4.38;;;;;;;-145.48;100.00;64539.38;6331627;28;20114;-92
2022/10/21 12:29:26;;;;;;;8.55;4.70;;;;;;;-145.48;100.00;64539.38;6331948;28;20537;-92
2022/10/21 12:32:52;;;;;;;7.13;4.38;;;;;;;-145.48;100.00;64539.38;6339062;28;20126;-92
2022/10/21 12:36:13;;;;;;;10.68;5.00;;;;;;;-145.48;100.00;64539.38;6332536;28;20055;-91
2022/10/21 12:39:35;;;;;;;;;;;;;;;-145.48;100.00;64539.38;6340258;28;20047;-91
2022/10/21 12:42:45;;;;;;;8.82;5.00;;;;;;;-145.48;100.00;64539.38;6339576;28;20377;-91
2022/10/21 12:46:08;;;;;;;9.05;5.15;;;;;;;-145.48;100.00;64539.38;6338699;28;20056;-91
2022/10/21 12:49:31;;;;;;;11.88;5.85;;;;;;;-145.48;100.00;64539.38;6337935;28;20164;-91
2022/10/21 12:52:37;;;;;;;11.98;4.72;;;;;;;-145.48;100.00;64539.38;6334632;28;20048;-90
2022/10/21 12:55:46;;;;;;;9.93;6.07;;;;;;;-145.48;100.00;64539.38;6331543;28;20054;-90
2022/10/21 12:58:56;;;;;;;9.25;6.10;;;;;;;-145.48;100.00;64539.38;6331771;28;20426;-90
2022/10/21 13:02:04;;;;;;;8.10;5.47;;;;;;;-145.48;100.00;64539.38;6339206;28;20039;-89
2022/10/21 13:05:06;;;;;;;12.77;5.88;;;;;;;-145.48;100.00;64539.38;6335355;28;20062;-89
2022/10/21 13:08:21;;;;;;;12.93;5.90;;;;;;;-145.48;100.00;64539.38;6338827;28;20040;-89
2022/10/21 13:11:37;;;;;;;10.93;5.28;;;;;;;-145.48;100.00;64539.38;6334264;28;20055;-88
2022/10/21 13:14:46;;;;;;;10.23;5.88;;;;;;;-145.48;100.00;64539.38;6338951;28;20035;-88
2022/10/21 13:17:55;;;;;;;7.95;5.22;;;;;;;-145.48;100.00;64539.38;6326535;28;20043;-88
2022/10/21 13:20:58;;;;;;;9.00;5.10;;;;;;;-145.48;100.00;64539.38;6331428;28;20119;-88
2022/10/21 13:24:23;;;;;;;11.43;5.45;;;;;;;-145.48;100.00;64539.38;6333082;28;20587;-88
2022/10/21 13:27:28;;;;;;;7.70;4.93;;;;;;;-145.48;100.00;64539.38;6328412;28;20056;-89
2022/10/21 13:30:37;;;;;;;8.30;5.35;;;;;;;-145.48;100.00;64539.38;6335655;28;21568;-89
2022/10/21 13:33:51;;;;;;;6.07;4.32;;;;;;;-145.48;100.00;64539.38;6336334;28;20043;-89
2022/10/21 13:36:54;;;;;;;8.98;4.40;;;;;;;-145.48;100.00;64539.38;6332725;28;20042;-89
2022/10/21 13:40:01;;;;;;;5.93;4.30;;;;;;;-145.48;100.00;64539.38;6335245;28;20072;-89
2022/10/21 13:43:15;;;;;;;8.38;4.28;;;;;;;-145.48;100.00;64539.38;6336461;28;20040;-89
2022/10/21 13:46:30;;;;;;;5.70;3.72;;;;;;;-145.48;100.00;64539.38;6335042;28;20359;-89
2022/10/21 13:49:32;;;;;;;9.40;4.43;;;;;;;-145.48;100.00;64539.38;6335950;28;20132;-89
2022/10/21 13:52:34;;;;;;;9.40;4.45;;;;;;;-145.48;100.00;64539.38;6336373;28;20383;-89
2022/10/21 13:55:36;;;;;;;6.97;4.10;;;;;;;-145.48;100.00;64539.38;6324793;28;20040;-89
2022/10/21 13:58:39;;;;;;;5.85;4.05;;;;;;;-145.48;100.00;64539.38;6335426;28;20122;-89
2022/10/21 14:01:50;;;;;;;6.45;3.97;;;;;;;-145.48;100.00;64539.38;6336246;28;20047;-89
2022/10/21 14:04:52;;;;;;;6.68;3.85;;;;;;;-145.48;100.00;64539.38;6337741;28;20031;-89
2022/10/21 14:07:53;;;;;;;5.00;3.92;;;;;;;-145.48;100.00;64539.38;6329301;28;20505;-89